Etusivu
METAR-TAF:

METAR-TAF

Lentoasemat :

Langlade County Airport

Antigo, Wisconsin, Yhdysvallat

Leveyspiiri: 45-09-15N, Pituuspiiri: 89-06-39W, korkeus merenpinnasta: 464 m

Tämänhetkinen sää

Tämä raportti tehtiin 28 minuuttia sitten, kello 18.55 UTC
Tuuli 11 kn lännestä/lounaasta
Lämpötila 20°C
Kosteus 88%
Ilmanpaine 1000 hPa
Näkyvyys: 16.1 km
Hajanaisia pilviä 1900 ft:n korkeudessa
Hajanaisia pilviä 2300 ft:n korkeudessa
Hajanaisia pilviä 3900 ft:n korkeudessa

METAR: KAIG 241855Z AUTO 24011KT 10SM SCT019 SCT023 SCT039 20/18 A2954 RMK AO2 T02020176

Aika: 14:23 (19:23 UTC)


TAF: puuttuu

Säähavainnot ja -ennusteet yli 4000 lentoasemalta (METAR- ja TAF-raportit).

Käytössä olevat sääasemat on merkitty karttaan keltaisilla ja punaisilla pisteillä.

Aseta hiiri pisteen päälle nähdäksesi sääaseman nimen.

Klikkaa sitten nähdäksesi säähavainnot ja -ennusteet.

Kartan vaihtaminen: klikkaa mustalla rastilla varustettuja vihreitä pisteitä, niin voit zoomata sisään; viivalla varustettua vihreää pistettä, niin voit zoomata ulos tai vihreitä nuolia, niin pääset viereisille kartoille.


METAR-TAF: